sensor_id;sensor_type;location;lat;lon;timestamp;P1;durP1;ratioP1;P2;durP2;ratioP2
9974;SDS011;5028;50.974;4.968;2023-07-20T00:00:55;4.30;;;2.83;;
9974;SDS011;5028;50.974;4.968;2023-07-20T00:03:24;7.03;;;3.30;;
9974;SDS011;5028;50.974;4.968;2023-07-20T00:05:52;6.47;;;3.40;;
9974;SDS011;5028;50.974;4.968;2023-07-20T00:08:21;5.73;;;3.20;;
9974;SDS011;5028;50.974;4.968;2023-07-20T00:10:51;5.40;;;3.20;;
9974;SDS011;5028;50.974;4.968;2023-07-20T00:13:20;5.23;;;3.30;;
9974;SDS011;5028;50.974;4.968;2023-07-20T00:15:49;3.90;;;3.00;;
9974;SDS011;5028;50.974;4.968;2023-07-20T00:18:18;5.40;;;3.00;;
9974;SDS011;5028;50.974;4.968;2023-07-20T00:20:47;4.37;;;3.17;;
9974;SDS011;5028;50.974;4.968;2023-07-20T00:23:17;3.87;;;2.73;;
9974;SDS011;5028;50.974;4.968;2023-07-20T00:25:49;5.70;;;2.80;;
9974;SDS011;5028;50.974;4.968;2023-07-20T00:28:20;5.07;;;3.00;;
9974;SDS011;5028;50.974;4.968;2023-07-20T00:30:48;4.97;;;2.73;;
9974;SDS011;5028;50.974;4.968;2023-07-20T00:33:17;3.57;;;2.83;;
9974;SDS011;5028;50.974;4.968;2023-07-20T00:35:46;6.80;;;3.10;;
9974;SDS011;5028;50.974;4.968;2023-07-20T00:38:15;6.00;;;3.07;;
9974;SDS011;5028;50.974;4.968;2023-07-20T00:40:44;3.97;;;2.67;;
9974;SDS011;5028;50.974;4.968;2023-07-20T00:43:12;4.33;;;2.43;;
9974;SDS011;5028;50.974;4.968;2023-07-20T00:45:43;3.90;;;2.67;;
9974;SDS011;5028;50.974;4.968;2023-07-20T00:48:13;4.87;;;2.73;;
9974;SDS011;5028;50.974;4.968;2023-07-20T00:50:42;6.60;;;2.80;;
9974;SDS011;5028;50.974;4.968;2023-07-20T00:53:12;3.70;;;2.70;;
9974;SDS011;5028;50.974;4.968;2023-07-20T00:55:42;4.40;;;2.93;;
9974;SDS011;5028;50.974;4.968;2023-07-20T00:58:10;4.53;;;2.90;;
9974;SDS011;5028;50.974;4.968;2023-07-20T01:00:39;4.37;;;3.07;;
9974;SDS011;5028;50.974;4.968;2023-07-20T01:03:09;8.97;;;3.17;;
9974;SDS011;5028;50.974;4.968;2023-07-20T01:05:40;3.97;;;2.73;;
9974;SDS011;5028;50.974;4.968;2023-07-20T01:08:15;7.93;;;3.00;;
9974;SDS011;5028;50.974;4.968;2023-07-20T01:10:54;7.70;;;3.40;;
9974;SDS011;5028;50.974;4.968;2023-07-20T01:13:30;4.23;;;2.80;;
9974;SDS011;5028;50.974;4.968;2023-07-20T01:16:00;4.67;;;2.80;;
9974;SDS011;5028;50.974;4.968;2023-07-20T01:18:31;6.87;;;3.37;;
9974;SDS011;5028;50.974;4.968;2023-07-20T01:21:02;6.60;;;2.93;;
9974;SDS011;5028;50.974;4.968;2023-07-20T01:23:50;6.60;;;2.70;;
9974;SDS011;5028;50.974;4.968;2023-07-20T01:29:36;7.60;;;3.60;;
9974;SDS011;5028;50.974;4.968;2023-07-20T01:32:13;6.23;;;3.17;;
9974;SDS011;5028;50.974;4.968;2023-07-20T01:34:46;6.27;;;3.43;;
9974;SDS011;5028;50.974;4.968;2023-07-20T01:37:16;6.10;;;3.13;;
9974;SDS011;5028;50.974;4.968;2023-07-20T01:39:47;5.60;;;3.63;;
9974;SDS011;5028;50.974;4.968;2023-07-20T01:42:16;6.97;;;3.93;;
9974;SDS011;5028;50.974;4.968;2023-07-20T01:44:45;7.00;;;3.43;;
9974;SDS011;5028;50.974;4.968;2023-07-20T01:47:16;4.67;;;3.30;;
9974;SDS011;5028;50.974;4.968;2023-07-20T01:49:44;8.17;;;3.10;;
9974;SDS011;5028;50.974;4.968;2023-07-20T01:52:13;6.47;;;3.57;;
9974;SDS011;5028;50.974;4.968;2023-07-20T01:54:42;5.03;;;3.27;;
9974;SDS011;5028;50.974;4.968;2023-07-20T01:57:12;5.57;;;3.50;;
9974;SDS011;5028;50.974;4.968;2023-07-20T01:59:41;7.40;;;3.90;;
9974;SDS011;5028;50.974;4.968;2023-07-20T02:02:10;6.03;;;3.90;;
9974;SDS011;5028;50.974;4.968;2023-07-20T02:04:40;6.93;;;3.70;;
9974;SDS011;5028;50.974;4.968;2023-07-20T02:07:09;12.17;;;4.20;;
9974;SDS011;5028;50.974;4.968;2023-07-20T02:09:38;6.77;;;3.90;;
9974;SDS011;5028;50.974;4.968;2023-07-20T02:12:07;7.73;;;3.77;;
9974;SDS011;5028;50.974;4.968;2023-07-20T02:14:36;7.33;;;4.20;;
9974;SDS011;5028;50.974;4.968;2023-07-20T02:17:05;6.47;;;4.23;;
9974;SDS011;5028;50.974;4.968;2023-07-20T02:19:37;7.13;;;4.50;;
9974;SDS011;5028;50.974;4.968;2023-07-20T02:22:08;7.83;;;4.83;;
9974;SDS011;5028;50.974;4.968;2023-07-20T02:24:36;9.47;;;4.63;;
9974;SDS011;5028;50.974;4.968;2023-07-20T02:27:05;7.53;;;4.47;;
9974;SDS011;5028;50.974;4.968;2023-07-20T02:29:34;6.87;;;4.70;;
9974;SDS011;5028;50.974;4.968;2023-07-20T02:32:03;8.50;;;4.27;;
9974;SDS011;5028;50.974;4.968;2023-07-20T02:34:32;8.80;;;4.60;;
9974;SDS011;5028;50.974;4.968;2023-07-20T02:37:01;7.53;;;4.80;;
9974;SDS011;5028;50.974;4.968;2023-07-20T02:39:31;7.23;;;4.80;;
9974;SDS011;5028;50.974;4.968;2023-07-20T02:42:00;10.10;;;4.73;;
9974;SDS011;5028;50.974;4.968;2023-07-20T02:44:29;8.27;;;4.77;;
9974;SDS011;5028;50.974;4.968;2023-07-20T02:46:58;8.93;;;5.03;;
9974;SDS011;5028;50.974;4.968;2023-07-20T02:49:27;7.97;;;4.67;;
9974;SDS011;5028;50.974;4.968;2023-07-20T02:51:56;7.93;;;4.63;;
9974;SDS011;5028;50.974;4.968;2023-07-20T02:54:24;7.73;;;4.77;;
9974;SDS011;5028;50.974;4.968;2023-07-20T02:56:55;7.33;;;4.53;;
9974;SDS011;5028;50.974;4.968;2023-07-20T02:59:24;9.10;;;4.63;;
9974;SDS011;5028;50.974;4.968;2023-07-20T03:01:53;7.83;;;5.10;;
9974;SDS011;5028;50.974;4.968;2023-07-20T03:04:22;9.97;;;5.03;;
9974;SDS011;5028;50.974;4.968;2023-07-20T03:06:51;7.23;;;4.40;;
9974;SDS011;5028;50.974;4.968;2023-07-20T03:09:20;9.40;;;5.30;;
9974;SDS011;5028;50.974;4.968;2023-07-20T03:11:49;7.73;;;5.23;;
9974;SDS011;5028;50.974;4.968;2023-07-20T03:14:19;10.87;;;5.57;;
9974;SDS011;5028;50.974;4.968;2023-07-20T03:16:49;10.07;;;5.70;;
9974;SDS011;5028;50.974;4.968;2023-07-20T03:19:18;9.17;;;5.83;;
9974;SDS011;5028;50.974;4.968;2023-07-20T03:21:47;11.10;;;5.63;;
9974;SDS011;5028;50.974;4.968;2023-07-20T03:24:16;10.37;;;5.87;;
9974;SDS011;5028;50.974;4.968;2023-07-20T03:26:45;10.93;;;5.30;;
9974;SDS011;5028;50.974;4.968;2023-07-20T03:29:13;10.50;;;5.73;;
9974;SDS011;5028;50.974;4.968;2023-07-20T03:31:44;8.50;;;5.63;;
9974;SDS011;5028;50.974;4.968;2023-07-20T03:34:12;9.27;;;6.10;;
9974;SDS011;5028;50.974;4.968;2023-07-20T03:36:41;9.23;;;6.20;;
9974;SDS011;5028;50.974;4.968;2023-07-20T03:39:10;7.67;;;5.80;;
9974;SDS011;5028;50.974;4.968;2023-07-20T03:41:39;9.50;;;6.40;;
9974;SDS011;5028;50.974;4.968;2023-07-20T03:44:08;9.70;;;5.93;;
9974;SDS011;5028;50.974;4.968;2023-07-20T03:46:37;9.47;;;5.70;;
9974;SDS011;5028;50.974;4.968;2023-07-20T03:49:07;9.27;;;6.17;;
9974;SDS011;5028;50.974;4.968;2023-07-20T03:51:36;8.57;;;5.80;;
9974;SDS011;5028;50.974;4.968;2023-07-20T03:54:05;10.40;;;5.73;;
9974;SDS011;5028;50.974;4.968;2023-07-20T03:56:34;9.37;;;6.13;;
9974;SDS011;5028;50.974;4.968;2023-07-20T03:59:03;9.47;;;6.07;;
9974;SDS011;5028;50.974;4.968;2023-07-20T04:01:33;13.17;;;6.20;;
9974;SDS011;5028;50.974;4.968;2023-07-20T04:04:04;10.77;;;5.90;;
9974;SDS011;5028;50.974;4.968;2023-07-20T04:06:37;8.17;;;6.40;;
9974;SDS011;5028;50.974;4.968;2023-07-20T04:09:06;11.67;;;6.63;;
9974;SDS011;5028;50.974;4.968;2023-07-20T04:11:37;12.23;;;6.50;;
9974;SDS011;5028;50.974;4.968;2023-07-20T04:14:07;12.13;;;6.97;;
9974;SDS011;5028;50.974;4.968;2023-07-20T04:16:35;12.70;;;6.83;;
9974;SDS011;5028;50.974;4.968;2023-07-20T04:19:04;14.97;;;7.80;;
9974;SDS011;5028;50.974;4.968;2023-07-20T04:21:39;11.90;;;7.13;;
9974;SDS011;5028;50.974;4.968;2023-07-20T04:24:09;12.70;;;6.70;;
9974;SDS011;5028;50.974;4.968;2023-07-20T04:26:38;14.70;;;7.93;;
9974;SDS011;5028;50.974;4.968;2023-07-20T04:29:06;11.87;;;7.30;;
9974;SDS011;5028;50.974;4.968;2023-07-20T04:31:36;11.83;;;6.77;;
9974;SDS011;5028;50.974;4.968;2023-07-20T04:34:05;9.80;;;7.37;;
9974;SDS011;5028;50.974;4.968;2023-07-20T04:36:33;12.57;;;7.60;;
9974;SDS011;5028;50.974;4.968;2023-07-20T04:39:04;10.33;;;7.23;;
9974;SDS011;5028;50.974;4.968;2023-07-20T04:41:55;12.70;;;7.43;;
9974;SDS011;5028;50.974;4.968;2023-07-20T04:44:23;12.23;;;7.47;;
9974;SDS011;5028;50.974;4.968;2023-07-20T04:46:52;12.53;;;7.77;;
9974;SDS011;5028;50.974;4.968;2023-07-20T04:49:20;15.07;;;7.87;;
9974;SDS011;5028;50.974;4.968;2023-07-20T04:51:49;15.43;;;8.10;;
9974;SDS011;5028;50.974;4.968;2023-07-20T04:54:20;11.57;;;7.57;;
9974;SDS011;5028;50.974;4.968;2023-07-20T04:56:49;13.07;;;8.40;;
9974;SDS011;5028;50.974;4.968;2023-07-20T04:59:18;11.40;;;8.13;;
9974;SDS011;5028;50.974;4.968;2023-07-20T05:01:47;13.40;;;8.20;;
9974;SDS011;5028;50.974;4.968;2023-07-20T05:04:16;10.53;;;9.03;;
9974;SDS011;5028;50.974;4.968;2023-07-20T05:06:44;13.20;;;9.20;;
9974;SDS011;5028;50.974;4.968;2023-07-20T05:09:13;14.23;;;9.37;;
9974;SDS011;5028;50.974;4.968;2023-07-20T05:11:43;10.60;;;8.50;;
9974;SDS011;5028;50.974;4.968;2023-07-20T05:14:14;10.63;;;9.43;;
9974;SDS011;5028;50.974;4.968;2023-07-20T05:16:42;12.50;;;9.40;;
9974;SDS011;5028;50.974;4.968;2023-07-20T05:19:11;11.83;;;9.10;;
9974;SDS011;5028;50.974;4.968;2023-07-20T05:21:40;11.63;;;9.17;;
9974;SDS011;5028;50.974;4.968;2023-07-20T05:24:10;11.97;;;9.37;;
9974;SDS011;5028;50.974;4.968;2023-07-20T05:26:38;11.53;;;8.90;;
9974;SDS011;5028;50.974;4.968;2023-07-20T05:29:09;12.07;;;9.80;;
9974;SDS011;5028;50.974;4.968;2023-07-20T05:31:37;11.80;;;9.23;;
9974;SDS011;5028;50.974;4.968;2023-07-20T05:34:06;10.03;;;9.10;;
9974;SDS011;5028;50.974;4.968;2023-07-20T05:36:35;10.83;;;9.60;;
9974;SDS011;5028;50.974;4.968;2023-07-20T05:39:04;10.27;;;8.90;;
9974;SDS011;5028;50.974;4.968;2023-07-20T05:41:33;11.00;;;9.80;;
9974;SDS011;5028;50.974;4.968;2023-07-20T05:44:02;11.20;;;9.00;;
9974;SDS011;5028;50.974;4.968;2023-07-20T05:46:32;10.77;;;9.00;;
9974;SDS011;5028;50.974;4.968;2023-07-20T05:49:20;10.93;;;9.83;;
9974;SDS011;5028;50.974;4.968;2023-07-20T05:51:49;12.00;;;10.70;;
9974;SDS011;5028;50.974;4.968;2023-07-20T05:54:18;13.23;;;10.20;;
9974;SDS011;5028;50.974;4.968;2023-07-20T05:56:47;12.00;;;10.30;;
9974;SDS011;5028;50.974;4.968;2023-07-20T05:59:15;11.40;;;9.70;;
9974;SDS011;5028;50.974;4.968;2023-07-20T06:01:46;12.47;;;11.17;;
9974;SDS011;5028;50.974;4.968;2023-07-20T06:04:15;11.50;;;9.77;;
9974;SDS011;5028;50.974;4.968;2023-07-20T06:06:44;10.70;;;9.60;;
9974;SDS011;5028;50.974;4.968;2023-07-20T06:09:12;10.27;;;9.37;;
9974;SDS011;5028;50.974;4.968;2023-07-20T06:11:42;10.73;;;9.23;;
9974;SDS011;5028;50.974;4.968;2023-07-20T06:14:10;11.63;;;10.53;;
9974;SDS011;5028;50.974;4.968;2023-07-20T06:16:39;11.43;;;10.33;;
9974;SDS011;5028;50.974;4.968;2023-07-20T06:19:10;10.70;;;9.70;;
9974;SDS011;5028;50.974;4.968;2023-07-20T06:21:38;12.60;;;9.97;;
9974;SDS011;5028;50.974;4.968;2023-07-20T06:24:07;12.57;;;10.17;;
9974;SDS011;5028;50.974;4.968;2023-07-20T06:26:36;11.80;;;10.70;;
9974;SDS011;5028;50.974;4.968;2023-07-20T06:29:06;11.50;;;10.40;;
9974;SDS011;5028;50.974;4.968;2023-07-20T06:31:35;10.50;;;9.50;;
9974;SDS011;5028;50.974;4.968;2023-07-20T06:34:04;10.37;;;9.37;;
9974;SDS011;5028;50.974;4.968;2023-07-20T06:36:35;11.10;;;10.00;;
9974;SDS011;5028;50.974;4.968;2023-07-20T06:39:04;12.33;;;10.13;;
9974;SDS011;5028;50.974;4.968;2023-07-20T06:41:36;12.13;;;10.93;;
9974;SDS011;5028;50.974;4.968;2023-07-20T06:44:07;11.90;;;10.20;;
9974;SDS011;5028;50.974;4.968;2023-07-20T06:46:36;10.20;;;9.20;;
9974;SDS011;5028;50.974;4.968;2023-07-20T06:49:05;11.20;;;10.17;;
9974;SDS011;5028;50.974;4.968;2023-07-20T06:51:39;9.93;;;9.00;;
9974;SDS011;5028;50.974;4.968;2023-07-20T06:54:08;10.77;;;9.73;;
9974;SDS011;5028;50.974;4.968;2023-07-20T06:56:37;10.43;;;9.37;;
9974;SDS011;5028;50.974;4.968;2023-07-20T06:59:11;10.90;;;9.80;;
9974;SDS011;5028;50.974;4.968;2023-07-20T07:01:40;11.30;;;10.10;;
9974;SDS011;5028;50.974;4.968;2023-07-20T07:04:09;10.97;;;9.87;;
9974;SDS011;5028;50.974;4.968;2023-07-20T07:06:39;9.00;;;8.17;;
9974;SDS011;5028;50.974;4.968;2023-07-20T07:09:08;9.37;;;8.47;;
9974;SDS011;5028;50.974;4.968;2023-07-20T07:11:37;11.70;;;8.43;;
9974;SDS011;5028;50.974;4.968;2023-07-20T07:14:05;8.70;;;7.90;;
9974;SDS011;5028;50.974;4.968;2023-07-20T07:16:34;8.40;;;7.60;;
9974;SDS011;5028;50.974;4.968;2023-07-20T07:19:04;9.07;;;6.77;;
9974;SDS011;5028;50.974;4.968;2023-07-20T07:21:35;6.20;;;5.60;;
9974;SDS011;5028;50.974;4.968;2023-07-20T07:24:05;5.97;;;5.37;;
9974;SDS011;5028;50.974;4.968;2023-07-20T07:26:36;6.03;;;5.43;;
9974;SDS011;5028;50.974;4.968;2023-07-20T07:29:08;5.53;;;5.07;;
9974;SDS011;5028;50.974;4.968;2023-07-20T07:31:36;5.03;;;4.47;;
9974;SDS011;5028;50.974;4.968;2023-07-20T07:34:05;4.90;;;4.50;;
9974;SDS011;5028;50.974;4.968;2023-07-20T07:36:34;5.60;;;4.73;;
9974;SDS011;5028;50.974;4.968;2023-07-20T07:39:04;5.20;;;4.70;;
9974;SDS011;5028;50.974;4.968;2023-07-20T07:41:36;6.73;;;5.70;;
9974;SDS011;5028;50.974;4.968;2023-07-20T07:44:05;5.97;;;5.33;;
9974;SDS011;5028;50.974;4.968;2023-07-20T07:46:33;6.23;;;4.80;;
9974;SDS011;5028;50.974;4.968;2023-07-20T07:49:02;5.60;;;5.03;;
9974;SDS011;5028;50.974;4.968;2023-07-20T07:51:31;4.60;;;3.50;;
9974;SDS011;5028;50.974;4.968;2023-07-20T07:53:59;4.23;;;3.77;;
9974;SDS011;5028;50.974;4.968;2023-07-20T07:56:30;2.90;;;2.70;;
9974;SDS011;5028;50.974;4.968;2023-07-20T07:58:58;3.87;;;3.47;;
9974;SDS011;5028;50.974;4.968;2023-07-20T08:01:27;4.53;;;4.13;;
9974;SDS011;5028;50.974;4.968;2023-07-20T08:03:56;4.67;;;4.03;;
9974;SDS011;5028;50.974;4.968;2023-07-20T08:06:27;4.87;;;4.20;;
9974;SDS011;5028;50.974;4.968;2023-07-20T08:08:57;3.90;;;3.60;;
9974;SDS011;5028;50.974;4.968;2023-07-20T08:11:26;4.63;;;3.90;;
9974;SDS011;5028;50.974;4.968;2023-07-20T08:13:59;4.37;;;3.97;;
9974;SDS011;5028;50.974;4.968;2023-07-20T08:16:28;3.40;;;3.20;;
9974;SDS011;5028;50.974;4.968;2023-07-20T08:18:57;4.20;;;3.10;;
9974;SDS011;5028;50.974;4.968;2023-07-20T08:21:26;3.33;;;3.03;;
9974;SDS011;5028;50.974;4.968;2023-07-20T08:23:54;4.20;;;2.97;;
9974;SDS011;5028;50.974;4.968;2023-07-20T08:26:23;2.70;;;2.30;;
9974;SDS011;5028;50.974;4.968;2023-07-20T08:28:54;2.50;;;2.30;;
9974;SDS011;5028;50.974;4.968;2023-07-20T08:31:25;3.07;;;2.77;;
9974;SDS011;5028;50.974;4.968;2023-07-20T08:33:54;3.07;;;2.80;;
9974;SDS011;5028;50.974;4.968;2023-07-20T08:36:23;3.73;;;3.23;;
9974;SDS011;5028;50.974;4.968;2023-07-20T08:38:53;3.70;;;2.87;;
9974;SDS011;5028;50.974;4.968;2023-07-20T08:41:21;3.40;;;3.10;;
9974;SDS011;5028;50.974;4.968;2023-07-20T08:43:50;4.07;;;3.70;;
9974;SDS011;5028;50.974;4.968;2023-07-20T08:46:22;4.33;;;3.93;;
9974;SDS011;5028;50.974;4.968;2023-07-20T08:48:54;4.30;;;3.90;;
9974;SDS011;5028;50.974;4.968;2023-07-20T08:51:24;4.17;;;3.83;;
9974;SDS011;5028;50.974;4.968;2023-07-20T08:53:53;5.17;;;4.30;;
9974;SDS011;5028;50.974;4.968;2023-07-20T08:56:22;4.97;;;3.70;;
9974;SDS011;5028;50.974;4.968;2023-07-20T08:58:53;3.93;;;3.33;;
9974;SDS011;5028;50.974;4.968;2023-07-20T09:01:24;4.87;;;3.70;;
9974;SDS011;5028;50.974;4.968;2023-07-20T09:03:56;4.07;;;3.67;;
9974;SDS011;5028;50.974;4.968;2023-07-20T09:06:25;3.60;;;3.30;;
9974;SDS011;5028;50.974;4.968;2023-07-20T09:08:55;3.30;;;2.90;;
9974;SDS011;5028;50.974;4.968;2023-07-20T09:11:24;3.40;;;3.03;;
9974;SDS011;5028;50.974;4.968;2023-07-20T09:14:01;3.13;;;2.90;;
9974;SDS011;5028;50.974;4.968;2023-07-20T09:16:32;3.10;;;2.77;;
9974;SDS011;5028;50.974;4.968;2023-07-20T09:19:14;3.03;;;2.70;;
9974;SDS011;5028;50.974;4.968;2023-07-20T09:21:49;2.93;;;2.63;;
9974;SDS011;5028;50.974;4.968;2023-07-20T09:24:21;4.40;;;2.70;;
9974;SDS011;5028;50.974;4.968;2023-07-20T09:26:49;2.07;;;1.90;;
9974;SDS011;5028;50.974;4.968;2023-07-20T09:29:19;2.63;;;2.03;;
9974;SDS011;5028;50.974;4.968;2023-07-20T09:31:59;2.20;;;1.83;;
9974;SDS011;5028;50.974;4.968;2023-07-20T09:34:29;2.67;;;2.30;;
9974;SDS011;5028;50.974;4.968;2023-07-20T09:37:01;2.00;;;1.70;;
9974;SDS011;5028;50.974;4.968;2023-07-20T09:39:31;2.20;;;2.00;;
9974;SDS011;5028;50.974;4.968;2023-07-20T09:42:00;2.17;;;1.87;;
9974;SDS011;5028;50.974;4.968;2023-07-20T09:44:34;2.90;;;1.90;;
9974;SDS011;5028;50.974;4.968;2023-07-20T09:47:07;2.13;;;1.93;;
9974;SDS011;5028;50.974;4.968;2023-07-20T09:49:38;2.33;;;1.77;;
9974;SDS011;5028;50.974;4.968;2023-07-20T09:52:11;2.10;;;1.60;;
9974;SDS011;5028;50.974;4.968;2023-07-20T09:55:00;2.40;;;1.60;;
9974;SDS011;5028;50.974;4.968;2023-07-20T09:57:30;2.80;;;1.80;;
9974;SDS011;5028;50.974;4.968;2023-07-20T10:00:04;1.57;;;1.30;;
9974;SDS011;5028;50.974;4.968;2023-07-20T10:02:44;2.33;;;1.40;;
9974;SDS011;5028;50.974;4.968;2023-07-20T10:05:13;1.97;;;1.60;;
9974;SDS011;5028;50.974;4.968;2023-07-20T10:07:44;1.83;;;1.40;;
9974;SDS011;5028;50.974;4.968;2023-07-20T10:10:37;2.17;;;1.30;;
9974;SDS011;5028;50.974;4.968;2023-07-20T10:13:10;2.13;;;1.57;;
9974;SDS011;5028;50.974;4.968;2023-07-20T10:15:46;3.33;;;1.67;;
9974;SDS011;5028;50.974;4.968;2023-07-20T10:18:24;2.10;;;1.40;;
9974;SDS011;5028;50.974;4.968;2023-07-20T10:21:00;3.27;;;1.73;;
9974;SDS011;5028;50.974;4.968;2023-07-20T10:23:32;2.17;;;1.63;;
9974;SDS011;5028;50.974;4.968;2023-07-20T10:26:02;2.10;;;1.40;;
9974;SDS011;5028;50.974;4.968;2023-07-20T10:28:32;2.27;;;1.60;;
9974;SDS011;5028;50.974;4.968;2023-07-20T10:31:01;2.70;;;1.50;;
9974;SDS011;5028;50.974;4.968;2023-07-20T10:33:34;1.93;;;1.30;;
9974;SDS011;5028;50.974;4.968;2023-07-20T10:36:05;2.47;;;1.50;;
9974;SDS011;5028;50.974;4.968;2023-07-20T10:38:40;1.93;;;1.60;;
9974;SDS011;5028;50.974;4.968;2023-07-20T10:41:17;2.00;;;1.53;;
9974;SDS011;5028;50.974;4.968;2023-07-20T10:43:47;1.67;;;1.27;;
9974;SDS011;5028;50.974;4.968;2023-07-20T10:49:14;2.03;;;1.40;;
9974;SDS011;5028;50.974;4.968;2023-07-20T10:51:43;2.47;;;1.50;;
9974;SDS011;5028;50.974;4.968;2023-07-20T10:57:23;1.93;;;1.50;;
9974;SDS011;5028;50.974;4.968;2023-07-20T11:00:07;1.80;;;1.20;;
9974;SDS011;5028;50.974;4.968;2023-07-20T11:02:44;1.38;;;1.27;;
9974;SDS011;5028;50.974;4.968;2023-07-20T11:05:34;2.38;;;1.40;;
9974;SDS011;5028;50.974;4.968;2023-07-20T11:08:06;1.50;;;1.15;;
9974;SDS011;5028;50.974;4.968;2023-07-20T11:10:42;1.25;;;1.15;;
9974;SDS011;5028;50.974;4.968;2023-07-20T11:13:15;2.08;;;1.17;;
9974;SDS011;5028;50.974;4.968;2023-07-20T11:16:01;1.40;;;1.20;;
9974;SDS011;5028;50.974;4.968;2023-07-20T11:18:35;2.30;;;1.40;;
9974;SDS011;5028;50.974;4.968;2023-07-20T11:21:10;1.65;;;1.38;;
9974;SDS011;5028;50.974;4.968;2023-07-20T11:23:39;1.45;;;1.10;;
9974;SDS011;5028;50.974;4.968;2023-07-20T11:26:08;1.55;;;1.25;;
9974;SDS011;5028;50.974;4.968;2023-07-20T11:28:38;2.60;;;1.30;;
9974;SDS011;5028;50.974;4.968;2023-07-20T11:31:07;1.10;;;1.00;;
9974;SDS011;5028;50.974;4.968;2023-07-20T11:33:36;1.45;;;1.20;;
9974;SDS011;5028;50.974;4.968;2023-07-20T11:36:06;1.20;;;1.10;;
9974;SDS011;5028;50.974;4.968;2023-07-20T11:38:42;1.88;;;1.00;;
9974;SDS011;5028;50.974;4.968;2023-07-20T11:41:11;0.95;;;0.90;;
9974;SDS011;5028;50.974;4.968;2023-07-20T11:43:40;1.58;;;1.15;;
9974;SDS011;5028;50.974;4.968;2023-07-20T11:46:09;1.70;;;1.08;;
9974;SDS011;5028;50.974;4.968;2023-07-20T11:48:38;2.30;;;1.20;;
9974;SDS011;5028;50.974;4.968;2023-07-20T11:51:12;1.00;;;0.90;;
9974;SDS011;5028;50.974;4.968;2023-07-20T11:53:44;0.98;;;0.80;;
9974;SDS011;5028;50.974;4.968;2023-07-20T11:56:15;0.88;;;0.80;;
9974;SDS011;5028;50.974;4.968;2023-07-20T11:58:44;1.00;;;0.80;;
9974;SDS011;5028;50.974;4.968;2023-07-20T12:01:13;2.30;;;0.80;;
9974;SDS011;5028;50.974;4.968;2023-07-20T12:03:42;1.00;;;0.90;;
9974;SDS011;5028;50.974;4.968;2023-07-20T12:06:11;1.98;;;1.08;;
9974;SDS011;5028;50.974;4.968;2023-07-20T12:08:41;1.20;;;0.75;;
9974;SDS011;5028;50.974;4.968;2023-07-20T12:11:12;3.75;;;1.05;;
9974;SDS011;5028;50.974;4.968;2023-07-20T12:13:42;1.17;;;0.80;;
9974;SDS011;5028;50.974;4.968;2023-07-20T12:16:12;1.00;;;0.70;;
9974;SDS011;5028;50.974;4.968;2023-07-20T12:18:47;1.27;;;0.80;;
9974;SDS011;5028;50.974;4.968;2023-07-20T12:21:16;2.08;;;0.70;;
9974;SDS011;5028;50.974;4.968;2023-07-20T12:23:49;1.52;;;0.80;;
9974;SDS011;5028;50.974;4.968;2023-07-20T12:26:17;1.70;;;0.90;;
9974;SDS011;5028;50.974;4.968;2023-07-20T12:28:49;1.25;;;0.80;;
9974;SDS011;5028;50.974;4.968;2023-07-20T12:31:18;0.60;;;0.60;;
9974;SDS011;5028;50.974;4.968;2023-07-20T12:33:47;1.27;;;1.00;;
9974;SDS011;5028;50.974;4.968;2023-07-20T12:36:16;0.93;;;0.88;;
9974;SDS011;5028;50.974;4.968;2023-07-20T12:38:46;5.43;;;1.00;;
9974;SDS011;5028;50.974;4.968;2023-07-20T12:41:16;1.00;;;0.90;;
9974;SDS011;5028;50.974;4.968;2023-07-20T12:43:45;2.35;;;0.90;;
9974;SDS011;5028;50.974;4.968;2023-07-20T12:46:14;1.58;;;0.80;;
9974;SDS011;5028;50.974;4.968;2023-07-20T12:48:44;2.00;;;0.77;;
9974;SDS011;5028;50.974;4.968;2023-07-20T12:51:15;1.23;;;0.70;;
9974;SDS011;5028;50.974;4.968;2023-07-20T12:53:44;1.23;;;0.98;;
9974;SDS011;5028;50.974;4.968;2023-07-20T12:56:13;1.70;;;0.80;;
9974;SDS011;5028;50.974;4.968;2023-07-20T12:58:45;1.10;;;0.73;;
9974;SDS011;5028;50.974;4.968;2023-07-20T13:01:16;0.82;;;0.80;;
9974;SDS011;5028;50.974;4.968;2023-07-20T13:03:45;0.90;;;0.80;;
9974;SDS011;5028;50.974;4.968;2023-07-20T13:06:16;2.17;;;0.80;;
9974;SDS011;5028;50.974;4.968;2023-07-20T13:08:48;1.00;;;0.80;;
9974;SDS011;5028;50.974;4.968;2023-07-20T13:11:22;1.15;;;0.80;;
9974;SDS011;5028;50.974;4.968;2023-07-20T13:13:53;1.70;;;0.90;;
9974;SDS011;5028;50.974;4.968;2023-07-20T13:16:22;1.05;;;0.70;;
9974;SDS011;5028;50.974;4.968;2023-07-20T13:18:51;1.00;;;0.80;;
9974;SDS011;5028;50.974;4.968;2023-07-20T13:21:20;1.80;;;0.90;;
9974;SDS011;5028;50.974;4.968;2023-07-20T13:23:51;2.10;;;0.90;;
9974;SDS011;5028;50.974;4.968;2023-07-20T13:26:23;1.77;;;0.90;;
9974;SDS011;5028;50.974;4.968;2023-07-20T13:28:52;1.75;;;0.90;;
9974;SDS011;5028;50.974;4.968;2023-07-20T13:31:21;2.15;;;0.80;;
9974;SDS011;5028;50.974;4.968;2023-07-20T13:33:50;1.13;;;0.80;;
9974;SDS011;5028;50.974;4.968;2023-07-20T13:36:25;1.00;;;0.70;;
9974;SDS011;5028;50.974;4.968;2023-07-20T13:38:56;1.48;;;0.75;;
9974;SDS011;5028;50.974;4.968;2023-07-20T13:41:25;1.10;;;1.00;;
9974;SDS011;5028;50.974;4.968;2023-07-20T13:43:57;1.02;;;0.73;;
9974;SDS011;5028;50.974;4.968;2023-07-20T13:46:26;1.25;;;0.73;;
9974;SDS011;5028;50.974;4.968;2023-07-20T13:48:57;1.23;;;0.90;;
9974;SDS011;5028;50.974;4.968;2023-07-20T13:51:26;0.70;;;0.70;;
9974;SDS011;5028;50.974;4.968;2023-07-20T13:53:56;2.15;;;0.80;;
9974;SDS011;5028;50.974;4.968;2023-07-20T13:56:45;1.70;;;0.70;;
9974;SDS011;5028;50.974;4.968;2023-07-20T13:59:16;0.60;;;0.60;;
9974;SDS011;5028;50.974;4.968;2023-07-20T14:01:44;2.10;;;1.00;;
9974;SDS011;5028;50.974;4.968;2023-07-20T14:04:13;0.80;;;0.80;;
9974;SDS011;5028;50.974;4.968;2023-07-20T14:06:42;1.70;;;1.03;;
9974;SDS011;5028;50.974;4.968;2023-07-20T14:09:11;1.53;;;0.80;;
9974;SDS011;5028;50.974;4.968;2023-07-20T14:11:40;1.93;;;1.00;;
9974;SDS011;5028;50.974;4.968;2023-07-20T14:14:12;0.70;;;0.70;;
9974;SDS011;5028;50.974;4.968;2023-07-20T14:16:42;1.57;;;1.00;;
9974;SDS011;5028;50.974;4.968;2023-07-20T14:19:11;2.20;;;0.80;;
9974;SDS011;5028;50.974;4.968;2023-07-20T14:21:40;0.80;;;0.70;;
9974;SDS011;5028;50.974;4.968;2023-07-20T14:24:09;1.53;;;0.70;;
9974;SDS011;5028;50.974;4.968;2023-07-20T14:26:38;1.63;;;0.90;;
9974;SDS011;5028;50.974;4.968;2023-07-20T14:29:09;1.10;;;0.77;;
9974;SDS011;5028;50.974;4.968;2023-07-20T14:31:38;1.40;;;0.70;;
9974;SDS011;5028;50.974;4.968;2023-07-20T14:34:08;2.33;;;0.83;;
9974;SDS011;5028;50.974;4.968;2023-07-20T14:36:37;1.67;;;0.80;;
9974;SDS011;5028;50.974;4.968;2023-07-20T14:39:08;1.40;;;0.77;;
9974;SDS011;5028;50.974;4.968;2023-07-20T14:41:36;0.83;;;0.70;;
9974;SDS011;5028;50.974;4.968;2023-07-20T14:44:05;0.80;;;0.70;;
9974;SDS011;5028;50.974;4.968;2023-07-20T14:46:34;0.93;;;0.80;;
9974;SDS011;5028;50.974;4.968;2023-07-20T14:49:03;1.40;;;0.80;;
9974;SDS011;5028;50.974;4.968;2023-07-20T14:51:33;2.37;;;0.90;;
9974;SDS011;5028;50.974;4.968;2023-07-20T14:54:03;0.97;;;0.70;;
9974;SDS011;5028;50.974;4.968;2023-07-20T14:56:34;1.57;;;0.73;;
9974;SDS011;5028;50.974;4.968;2023-07-20T14:59:04;1.43;;;0.80;;
9974;SDS011;5028;50.974;4.968;2023-07-20T15:01:33;1.47;;;0.70;;
9974;SDS011;5028;50.974;4.968;2023-07-20T15:04:02;3.00;;;0.93;;
9974;SDS011;5028;50.974;4.968;2023-07-20T15:06:32;2.37;;;1.00;;
9974;SDS011;5028;50.974;4.968;2023-07-20T15:09:01;1.37;;;0.90;;
9974;SDS011;5028;50.974;4.968;2023-07-20T15:11:31;2.33;;;0.90;;
9974;SDS011;5028;50.974;4.968;2023-07-20T15:14:01;1.00;;;0.90;;
9974;SDS011;5028;50.974;4.968;2023-07-20T15:16:29;1.00;;;0.90;;
9974;SDS011;5028;50.974;4.968;2023-07-20T15:18:58;3.70;;;1.00;;
9974;SDS011;5028;50.974;4.968;2023-07-20T15:21:26;0.97;;;0.90;;
9974;SDS011;5028;50.974;4.968;2023-07-20T15:23:58;0.80;;;0.80;;
9974;SDS011;5028;50.974;4.968;2023-07-20T15:26:27;1.17;;;0.73;;
9974;SDS011;5028;50.974;4.968;2023-07-20T15:28:56;2.17;;;0.97;;
9974;SDS011;5028;50.974;4.968;2023-07-20T15:31:25;1.63;;;0.80;;
9974;SDS011;5028;50.974;4.968;2023-07-20T15:33:57;1.03;;;0.90;;
9974;SDS011;5028;50.974;4.968;2023-07-20T15:36:25;0.80;;;0.80;;
9974;SDS011;5028;50.974;4.968;2023-07-20T15:38:54;1.30;;;0.93;;
9974;SDS011;5028;50.974;4.968;2023-07-20T15:41:25;1.03;;;0.80;;